sensor_id;sensor_type;location;lat;lon;timestamp;P1;durP1;ratioP1;P2;durP2;ratioP2
83404;SDS011;73331;48.168;20.776;2024-01-11T00:00:37;52.72;;;23.95;;
83404;SDS011;73331;48.168;20.776;2024-01-11T00:02:07;46.80;;;23.45;;
83404;SDS011;73331;48.168;20.776;2024-01-11T00:03:38;55.22;;;25.13;;
83404;SDS011;73331;48.168;20.776;2024-01-11T00:05:08;53.17;;;25.77;;
83404;SDS011;73331;48.168;20.776;2024-01-11T00:06:40;55.15;;;22.35;;
83404;SDS011;73331;48.168;20.776;2024-01-11T00:08:13;45.65;;;20.42;;
83404;SDS011;73331;48.168;20.776;2024-01-11T00:09:44;52.67;;;20.27;;
83404;SDS011;73331;48.168;20.776;2024-01-11T00:11:14;36.40;;;18.52;;
83404;SDS011;73331;48.168;20.776;2024-01-11T00:12:45;43.97;;;18.90;;
83404;SDS011;73331;48.168;20.776;2024-01-11T00:14:16;45.28;;;20.00;;
83404;SDS011;73331;48.168;20.776;2024-01-11T00:15:46;47.42;;;20.15;;
83404;SDS011;73331;48.168;20.776;2024-01-11T00:17:16;54.47;;;21.70;;
83404;SDS011;73331;48.168;20.776;2024-01-11T00:18:47;42.13;;;18.45;;
83404;SDS011;73331;48.168;20.776;2024-01-11T00:20:17;39.50;;;18.48;;
83404;SDS011;73331;48.168;20.776;2024-01-11T00:21:48;45.35;;;21.75;;
83404;SDS011;73331;48.168;20.776;2024-01-11T00:23:18;52.95;;;24.88;;
83404;SDS011;73331;48.168;20.776;2024-01-11T00:24:49;42.75;;;23.50;;
83404;SDS011;73331;48.168;20.776;2024-01-11T00:26:19;44.83;;;20.73;;
83404;SDS011;73331;48.168;20.776;2024-01-11T00:27:50;50.30;;;22.60;;
83404;SDS011;73331;48.168;20.776;2024-01-11T00:29:22;46.78;;;21.75;;
83404;SDS011;73331;48.168;20.776;2024-01-11T00:30:52;50.03;;;21.05;;
83404;SDS011;73331;48.168;20.776;2024-01-11T00:32:22;64.82;;;25.98;;
83404;SDS011;73331;48.168;20.776;2024-01-11T00:33:53;47.60;;;22.50;;
83404;SDS011;73331;48.168;20.776;2024-01-11T00:35:23;43.58;;;17.60;;
83404;SDS011;73331;48.168;20.776;2024-01-11T00:36:54;45.67;;;22.80;;
83404;SDS011;73331;48.168;20.776;2024-01-11T00:38:25;46.65;;;20.95;;
83404;SDS011;73331;48.168;20.776;2024-01-11T00:39:55;49.63;;;23.80;;
83404;SDS011;73331;48.168;20.776;2024-01-11T00:41:26;48.60;;;24.25;;
83404;SDS011;73331;48.168;20.776;2024-01-11T00:42:56;47.10;;;20.95;;
83404;SDS011;73331;48.168;20.776;2024-01-11T00:44:27;57.72;;;23.13;;
83404;SDS011;73331;48.168;20.776;2024-01-11T00:45:57;48.42;;;21.40;;
83404;SDS011;73331;48.168;20.776;2024-01-11T00:47:27;52.05;;;22.58;;
83404;SDS011;73331;48.168;20.776;2024-01-11T00:48:58;58.30;;;26.13;;
83404;SDS011;73331;48.168;20.776;2024-01-11T00:50:28;48.67;;;21.75;;
83404;SDS011;73331;48.168;20.776;2024-01-11T00:51:59;57.50;;;22.98;;
83404;SDS011;73331;48.168;20.776;2024-01-11T00:53:29;44.65;;;22.42;;
83404;SDS011;73331;48.168;20.776;2024-01-11T00:55:01;37.22;;;19.63;;
83404;SDS011;73331;48.168;20.776;2024-01-11T00:56:31;40.30;;;15.80;;
83404;SDS011;73331;48.168;20.776;2024-01-11T00:58:02;46.47;;;19.75;;
83404;SDS011;73331;48.168;20.776;2024-01-11T00:59:32;42.97;;;19.05;;
83404;SDS011;73331;48.168;20.776;2024-01-11T01:01:03;45.72;;;19.00;;
83404;SDS011;73331;48.168;20.776;2024-01-11T01:02:38;39.38;;;17.65;;
83404;SDS011;73331;48.168;20.776;2024-01-11T01:04:09;35.30;;;16.40;;
83404;SDS011;73331;48.168;20.776;2024-01-11T01:05:40;36.83;;;17.73;;
83404;SDS011;73331;48.168;20.776;2024-01-11T01:07:10;39.65;;;17.83;;
83404;SDS011;73331;48.168;20.776;2024-01-11T01:08:41;47.97;;;20.73;;
83404;SDS011;73331;48.168;20.776;2024-01-11T01:10:11;37.97;;;19.63;;
83404;SDS011;73331;48.168;20.776;2024-01-11T01:11:42;38.72;;;20.58;;
83404;SDS011;73331;48.168;20.776;2024-01-11T01:13:12;47.58;;;20.90;;
83404;SDS011;73331;48.168;20.776;2024-01-11T01:14:43;43.42;;;20.05;;
83404;SDS011;73331;48.168;20.776;2024-01-11T01:16:13;42.72;;;19.45;;
83404;SDS011;73331;48.168;20.776;2024-01-11T01:17:45;43.38;;;18.42;;
83404;SDS011;73331;48.168;20.776;2024-01-11T01:19:15;40.60;;;19.27;;
83404;SDS011;73331;48.168;20.776;2024-01-11T01:20:45;47.00;;;20.67;;
83404;SDS011;73331;48.168;20.776;2024-01-11T01:22:16;42.03;;;17.02;;
83404;SDS011;73331;48.168;20.776;2024-01-11T01:23:46;44.22;;;20.92;;
83404;SDS011;73331;48.168;20.776;2024-01-11T01:25:17;47.13;;;20.98;;
83404;SDS011;73331;48.168;20.776;2024-01-11T01:26:48;43.78;;;20.33;;
83404;SDS011;73331;48.168;20.776;2024-01-11T01:28:18;48.22;;;19.90;;
83404;SDS011;73331;48.168;20.776;2024-01-11T01:29:49;50.22;;;22.90;;
83404;SDS011;73331;48.168;20.776;2024-01-11T01:31:19;46.15;;;18.30;;
83404;SDS011;73331;48.168;20.776;2024-01-11T01:32:50;35.47;;;18.55;;
83404;SDS011;73331;48.168;20.776;2024-01-11T01:34:20;41.28;;;16.65;;
83404;SDS011;73331;48.168;20.776;2024-01-11T01:35:51;43.08;;;18.95;;
83404;SDS011;73331;48.168;20.776;2024-01-11T01:37:21;46.33;;;18.98;;
83404;SDS011;73331;48.168;20.776;2024-01-11T01:38:52;41.72;;;18.52;;
83404;SDS011;73331;48.168;20.776;2024-01-11T01:40:22;38.97;;;17.85;;
83404;SDS011;73331;48.168;20.776;2024-01-11T01:41:53;35.05;;;15.60;;
83404;SDS011;73331;48.168;20.776;2024-01-11T01:43:23;35.83;;;16.02;;
83404;SDS011;73331;48.168;20.776;2024-01-11T01:44:53;38.38;;;17.27;;
83404;SDS011;73331;48.168;20.776;2024-01-11T01:46:24;40.33;;;16.73;;
83404;SDS011;73331;48.168;20.776;2024-01-11T01:47:56;47.80;;;18.13;;
83404;SDS011;73331;48.168;20.776;2024-01-11T01:49:26;36.00;;;14.68;;
83404;SDS011;73331;48.168;20.776;2024-01-11T01:50:57;34.30;;;15.90;;
83404;SDS011;73331;48.168;20.776;2024-01-11T01:52:27;32.92;;;12.73;;
83404;SDS011;73331;48.168;20.776;2024-01-11T01:53:58;30.95;;;13.88;;
83404;SDS011;73331;48.168;20.776;2024-01-11T01:55:30;33.75;;;13.85;;
83404;SDS011;73331;48.168;20.776;2024-01-11T01:57:01;33.85;;;14.00;;
83404;SDS011;73331;48.168;20.776;2024-01-11T01:58:33;18.85;;;10.45;;
83404;SDS011;73331;48.168;20.776;2024-01-11T02:00:04;23.55;;;11.73;;
83404;SDS011;73331;48.168;20.776;2024-01-11T02:01:35;19.55;;;11.65;;
83404;SDS011;73331;48.168;20.776;2024-01-11T02:03:05;29.90;;;11.60;;
83404;SDS011;73331;48.168;20.776;2024-01-11T02:04:36;23.38;;;12.48;;
83404;SDS011;73331;48.168;20.776;2024-01-11T02:06:06;32.10;;;11.73;;
83404;SDS011;73331;48.168;20.776;2024-01-11T02:07:38;30.50;;;11.63;;
83404;SDS011;73331;48.168;20.776;2024-01-11T02:09:09;30.20;;;14.43;;
83404;SDS011;73331;48.168;20.776;2024-01-11T02:10:41;40.55;;;17.27;;
83404;SDS011;73331;48.168;20.776;2024-01-11T02:12:13;45.50;;;19.80;;
83404;SDS011;73331;48.168;20.776;2024-01-11T02:13:44;62.17;;;23.58;;
83404;SDS011;73331;48.168;20.776;2024-01-11T02:15:15;49.83;;;22.08;;
83404;SDS011;73331;48.168;20.776;2024-01-11T02:16:46;53.97;;;21.27;;
83404;SDS011;73331;48.168;20.776;2024-01-11T02:18:17;46.67;;;20.73;;
83404;SDS011;73331;48.168;20.776;2024-01-11T02:19:47;50.45;;;20.92;;
83404;SDS011;73331;48.168;20.776;2024-01-11T02:21:18;42.03;;;17.85;;
83404;SDS011;73331;48.168;20.776;2024-01-11T02:22:50;48.30;;;18.65;;
83404;SDS011;73331;48.168;20.776;2024-01-11T02:24:26;39.65;;;17.75;;
83404;SDS011;73331;48.168;20.776;2024-01-11T02:25:56;40.20;;;16.30;;
83404;SDS011;73331;48.168;20.776;2024-01-11T02:27:27;38.60;;;17.17;;
83404;SDS011;73331;48.168;20.776;2024-01-11T02:28:57;33.78;;;15.05;;
83404;SDS011;73331;48.168;20.776;2024-01-11T02:30:28;36.20;;;14.02;;
83404;SDS011;73331;48.168;20.776;2024-01-11T02:31:59;28.90;;;12.65;;
83404;SDS011;73331;48.168;20.776;2024-01-11T02:33:31;27.70;;;12.90;;
83404;SDS011;73331;48.168;20.776;2024-01-11T02:35:02;25.27;;;12.15;;
83404;SDS011;73331;48.168;20.776;2024-01-11T02:36:33;27.80;;;11.32;;
83404;SDS011;73331;48.168;20.776;2024-01-11T02:38:04;29.40;;;12.95;;
83404;SDS011;73331;48.168;20.776;2024-01-11T02:39:35;27.77;;;12.52;;
83404;SDS011;73331;48.168;20.776;2024-01-11T02:41:06;28.75;;;13.00;;
83404;SDS011;73331;48.168;20.776;2024-01-11T02:42:37;23.80;;;13.23;;
83404;SDS011;73331;48.168;20.776;2024-01-11T02:44:08;38.65;;;15.68;;
83404;SDS011;73331;48.168;20.776;2024-01-11T02:45:38;31.13;;;15.05;;
83404;SDS011;73331;48.168;20.776;2024-01-11T02:47:09;24.38;;;11.70;;
83404;SDS011;73331;48.168;20.776;2024-01-11T02:48:39;28.95;;;11.68;;
83404;SDS011;73331;48.168;20.776;2024-01-11T02:50:10;26.15;;;12.23;;
83404;SDS011;73331;48.168;20.776;2024-01-11T02:51:43;34.20;;;13.57;;
83404;SDS011;73331;48.168;20.776;2024-01-11T02:53:14;33.75;;;14.77;;
83404;SDS011;73331;48.168;20.776;2024-01-11T02:54:45;33.47;;;14.07;;
83404;SDS011;73331;48.168;20.776;2024-01-11T02:56:15;17.23;;;8.90;;
83404;SDS011;73331;48.168;20.776;2024-01-11T02:57:46;16.83;;;7.20;;
83404;SDS011;73331;48.168;20.776;2024-01-11T02:59:16;19.08;;;7.68;;
83404;SDS011;73331;48.168;20.776;2024-01-11T03:00:47;13.50;;;5.30;;
83404;SDS011;73331;48.168;20.776;2024-01-11T03:02:17;14.10;;;6.88;;
83404;SDS011;73331;48.168;20.776;2024-01-11T03:03:48;26.02;;;10.57;;
83404;SDS011;73331;48.168;20.776;2024-01-11T03:05:18;18.45;;;7.22;;
83404;SDS011;73331;48.168;20.776;2024-01-11T03:06:49;26.20;;;11.68;;
83404;SDS011;73331;48.168;20.776;2024-01-11T03:08:19;18.45;;;9.90;;
83404;SDS011;73331;48.168;20.776;2024-01-11T03:09:50;19.38;;;7.45;;
83404;SDS011;73331;48.168;20.776;2024-01-11T03:11:20;17.70;;;8.30;;
83404;SDS011;73331;48.168;20.776;2024-01-11T03:12:51;20.38;;;7.07;;
83404;SDS011;73331;48.168;20.776;2024-01-11T03:14:21;14.23;;;7.93;;
83404;SDS011;73331;48.168;20.776;2024-01-11T03:15:52;15.38;;;6.88;;
83404;SDS011;73331;48.168;20.776;2024-01-11T03:17:22;23.70;;;9.30;;
83404;SDS011;73331;48.168;20.776;2024-01-11T03:18:53;16.63;;;7.18;;
83404;SDS011;73331;48.168;20.776;2024-01-11T03:20:23;20.98;;;6.60;;
83404;SDS011;73331;48.168;20.776;2024-01-11T03:21:54;13.40;;;5.90;;
83404;SDS011;73331;48.168;20.776;2024-01-11T03:23:25;20.17;;;8.57;;
83404;SDS011;73331;48.168;20.776;2024-01-11T03:24:55;19.58;;;9.13;;
83404;SDS011;73331;48.168;20.776;2024-01-11T03:26:26;21.65;;;9.88;;
83404;SDS011;73331;48.168;20.776;2024-01-11T03:27:59;21.25;;;9.45;;
83404;SDS011;73331;48.168;20.776;2024-01-11T03:29:30;21.85;;;9.50;;
83404;SDS011;73331;48.168;20.776;2024-01-11T03:31:00;10.45;;;5.75;;
83404;SDS011;73331;48.168;20.776;2024-01-11T03:32:31;20.33;;;10.10;;
83404;SDS011;73331;48.168;20.776;2024-01-11T03:34:01;7.90;;;5.32;;
83404;SDS011;73331;48.168;20.776;2024-01-11T03:35:32;17.77;;;9.73;;
83404;SDS011;73331;48.168;20.776;2024-01-11T03:37:02;40.67;;;17.17;;
83404;SDS011;73331;48.168;20.776;2024-01-11T03:38:33;34.33;;;14.55;;
83404;SDS011;73331;48.168;20.776;2024-01-11T03:40:04;42.78;;;16.90;;
83404;SDS011;73331;48.168;20.776;2024-01-11T03:41:35;34.00;;;16.38;;
83404;SDS011;73331;48.168;20.776;2024-01-11T03:43:05;38.50;;;14.68;;
83404;SDS011;73331;48.168;20.776;2024-01-11T03:44:36;30.27;;;13.20;;
83404;SDS011;73331;48.168;20.776;2024-01-11T03:46:07;20.77;;;10.43;;
83404;SDS011;73331;48.168;20.776;2024-01-11T03:47:38;32.20;;;13.95;;
83404;SDS011;73331;48.168;20.776;2024-01-11T03:49:08;30.98;;;13.35;;
83404;SDS011;73331;48.168;20.776;2024-01-11T03:50:39;27.48;;;11.77;;
83404;SDS011;73331;48.168;20.776;2024-01-11T03:52:09;25.75;;;12.82;;
83404;SDS011;73331;48.168;20.776;2024-01-11T03:53:39;32.65;;;13.82;;
83404;SDS011;73331;48.168;20.776;2024-01-11T03:55:10;31.27;;;14.00;;
83404;SDS011;73331;48.168;20.776;2024-01-11T03:56:40;22.27;;;11.13;;
83404;SDS011;73331;48.168;20.776;2024-01-11T03:58:11;26.90;;;12.02;;
83404;SDS011;73331;48.168;20.776;2024-01-11T03:59:41;32.38;;;14.30;;
83404;SDS011;73331;48.168;20.776;2024-01-11T04:01:12;24.95;;;12.02;;
83404;SDS011;73331;48.168;20.776;2024-01-11T04:02:42;38.33;;;13.10;;
83404;SDS011;73331;48.168;20.776;2024-01-11T04:04:13;38.75;;;15.02;;
83404;SDS011;73331;48.168;20.776;2024-01-11T04:05:43;36.97;;;14.10;;
83404;SDS011;73331;48.168;20.776;2024-01-11T04:07:14;33.63;;;15.30;;
83404;SDS011;73331;48.168;20.776;2024-01-11T04:08:44;39.63;;;16.83;;
83404;SDS011;73331;48.168;20.776;2024-01-11T04:10:17;40.40;;;18.40;;
83404;SDS011;73331;48.168;20.776;2024-01-11T04:11:48;44.85;;;20.27;;
83404;SDS011;73331;48.168;20.776;2024-01-11T04:13:18;74.65;;;30.00;;
83404;SDS011;73331;48.168;20.776;2024-01-11T04:14:49;54.65;;;21.83;;
83404;SDS011;73331;48.168;20.776;2024-01-11T04:16:19;55.28;;;22.55;;
83404;SDS011;73331;48.168;20.776;2024-01-11T04:17:50;59.33;;;22.38;;
83404;SDS011;73331;48.168;20.776;2024-01-11T04:19:21;39.22;;;17.17;;
83404;SDS011;73331;48.168;20.776;2024-01-11T04:20:51;33.60;;;15.57;;
83404;SDS011;73331;48.168;20.776;2024-01-11T04:22:22;36.22;;;15.05;;
83404;SDS011;73331;48.168;20.776;2024-01-11T04:23:52;36.95;;;14.57;;
83404;SDS011;73331;48.168;20.776;2024-01-11T04:25:22;25.67;;;13.45;;
83404;SDS011;73331;48.168;20.776;2024-01-11T04:26:53;35.40;;;14.45;;
83404;SDS011;73331;48.168;20.776;2024-01-11T04:28:23;28.05;;;14.20;;
83404;SDS011;73331;48.168;20.776;2024-01-11T04:29:54;71.22;;;26.25;;
83404;SDS011;73331;48.168;20.776;2024-01-11T04:31:24;41.45;;;16.73;;
83404;SDS011;73331;48.168;20.776;2024-01-11T04:32:55;42.47;;;18.52;;
83404;SDS011;73331;48.168;20.776;2024-01-11T04:34:26;37.83;;;17.20;;
83404;SDS011;73331;48.168;20.776;2024-01-11T04:35:56;54.53;;;18.42;;
83404;SDS011;73331;48.168;20.776;2024-01-11T04:37:27;48.95;;;15.32;;
83404;SDS011;73331;48.168;20.776;2024-01-11T04:38:57;38.58;;;15.27;;
83404;SDS011;73331;48.168;20.776;2024-01-11T04:40:28;44.95;;;21.70;;
83404;SDS011;73331;48.168;20.776;2024-01-11T04:41:58;45.90;;;19.90;;
83404;SDS011;73331;48.168;20.776;2024-01-11T04:43:30;82.15;;;32.03;;
83404;SDS011;73331;48.168;20.776;2024-01-11T04:45:01;49.85;;;20.40;;
83404;SDS011;73331;48.168;20.776;2024-01-11T04:46:31;44.47;;;21.67;;
83404;SDS011;73331;48.168;20.776;2024-01-11T04:48:02;44.20;;;18.60;;
83404;SDS011;73331;48.168;20.776;2024-01-11T04:49:33;24.98;;;13.05;;
83404;SDS011;73331;48.168;20.776;2024-01-11T04:51:03;24.85;;;11.10;;
83404;SDS011;73331;48.168;20.776;2024-01-11T04:52:34;35.97;;;16.05;;
83404;SDS011;73331;48.168;20.776;2024-01-11T04:54:04;29.30;;;12.20;;
83404;SDS011;73331;48.168;20.776;2024-01-11T04:55:35;28.98;;;11.52;;
83404;SDS011;73331;48.168;20.776;2024-01-11T04:57:05;56.22;;;23.50;;
83404;SDS011;73331;48.168;20.776;2024-01-11T04:58:36;39.30;;;17.65;;
83404;SDS011;73331;48.168;20.776;2024-01-11T05:00:09;46.03;;;18.25;;
83404;SDS011;73331;48.168;20.776;2024-01-11T05:01:40;33.83;;;13.65;;
83404;SDS011;73331;48.168;20.776;2024-01-11T05:03:12;31.73;;;15.18;;
83404;SDS011;73331;48.168;20.776;2024-01-11T05:04:42;39.22;;;18.35;;
83404;SDS011;73331;48.168;20.776;2024-01-11T05:06:15;53.80;;;21.17;;
83404;SDS011;73331;48.168;20.776;2024-01-11T05:07:46;57.05;;;21.98;;
83404;SDS011;73331;48.168;20.776;2024-01-11T05:09:17;46.42;;;18.35;;
83404;SDS011;73331;48.168;20.776;2024-01-11T05:10:47;52.83;;;18.77;;
83404;SDS011;73331;48.168;20.776;2024-01-11T05:12:18;49.03;;;21.70;;
83404;SDS011;73331;48.168;20.776;2024-01-11T05:13:49;43.85;;;17.52;;
83404;SDS011;73331;48.168;20.776;2024-01-11T05:15:20;36.78;;;14.50;;
83404;SDS011;73331;48.168;20.776;2024-01-11T05:16:51;39.22;;;15.50;;
83404;SDS011;73331;48.168;20.776;2024-01-11T05:18:22;36.15;;;16.35;;
83404;SDS011;73331;48.168;20.776;2024-01-11T05:19:53;32.67;;;11.82;;
83404;SDS011;73331;48.168;20.776;2024-01-11T05:21:23;37.20;;;14.82;;
83404;SDS011;73331;48.168;20.776;2024-01-11T05:22:54;28.23;;;12.45;;
83404;SDS011;73331;48.168;20.776;2024-01-11T05:24:25;25.02;;;13.13;;
83404;SDS011;73331;48.168;20.776;2024-01-11T05:25:55;31.83;;;14.60;;
83404;SDS011;73331;48.168;20.776;2024-01-11T05:27:26;31.95;;;12.80;;
83404;SDS011;73331;48.168;20.776;2024-01-11T05:28:56;35.70;;;13.95;;
83404;SDS011;73331;48.168;20.776;2024-01-11T05:30:27;41.97;;;17.92;;
83404;SDS011;73331;48.168;20.776;2024-01-11T05:31:57;27.30;;;13.25;;
83404;SDS011;73331;48.168;20.776;2024-01-11T05:33:28;26.88;;;12.13;;
83404;SDS011;73331;48.168;20.776;2024-01-11T05:34:58;32.13;;;12.02;;
83404;SDS011;73331;48.168;20.776;2024-01-11T05:36:29;34.10;;;13.48;;
83404;SDS011;73331;48.168;20.776;2024-01-11T05:37:59;30.77;;;13.25;;
83404;SDS011;73331;48.168;20.776;2024-01-11T05:39:30;35.58;;;14.57;;
83404;SDS011;73331;48.168;20.776;2024-01-11T05:41:01;26.35;;;11.25;;
83404;SDS011;73331;48.168;20.776;2024-01-11T05:42:32;24.38;;;9.93;;
83404;SDS011;73331;48.168;20.776;2024-01-11T05:44:02;34.88;;;15.55;;
83404;SDS011;73331;48.168;20.776;2024-01-11T05:45:34;37.05;;;14.55;;
83404;SDS011;73331;48.168;20.776;2024-01-11T05:47:05;52.53;;;20.42;;
83404;SDS011;73331;48.168;20.776;2024-01-11T05:48:35;43.78;;;18.77;;
83404;SDS011;73331;48.168;20.776;2024-01-11T05:50:06;34.85;;;13.40;;
83404;SDS011;73331;48.168;20.776;2024-01-11T05:51:37;37.92;;;13.98;;
83404;SDS011;73331;48.168;20.776;2024-01-11T05:53:07;28.52;;;10.48;;
83404;SDS011;73331;48.168;20.776;2024-01-11T05:54:38;25.60;;;11.70;;
83404;SDS011;73331;48.168;20.776;2024-01-11T05:56:09;21.00;;;9.70;;
83404;SDS011;73331;48.168;20.776;2024-01-11T05:57:40;38.15;;;14.48;;
83404;SDS011;73331;48.168;20.776;2024-01-11T05:59:10;29.33;;;13.80;;
83404;SDS011;73331;48.168;20.776;2024-01-11T06:00:41;29.33;;;12.88;;
83404;SDS011;73331;48.168;20.776;2024-01-11T06:02:12;28.17;;;12.98;;
83404;SDS011;73331;48.168;20.776;2024-01-11T06:03:43;35.92;;;12.60;;
83404;SDS011;73331;48.168;20.776;2024-01-11T06:05:14;31.48;;;13.50;;
83404;SDS011;73331;48.168;20.776;2024-01-11T06:06:45;32.35;;;12.80;;
83404;SDS011;73331;48.168;20.776;2024-01-11T06:08:15;31.00;;;13.32;;
83404;SDS011;73331;48.168;20.776;2024-01-11T06:09:47;28.52;;;12.80;;
83404;SDS011;73331;48.168;20.776;2024-01-11T06:11:17;31.30;;;12.93;;
83404;SDS011;73331;48.168;20.776;2024-01-11T06:12:48;35.40;;;14.98;;
83404;SDS011;73331;48.168;20.776;2024-01-11T06:14:20;31.48;;;13.60;;
83404;SDS011;73331;48.168;20.776;2024-01-11T06:15:50;32.75;;;13.20;;
83404;SDS011;73331;48.168;20.776;2024-01-11T06:17:21;31.55;;;12.93;;
83404;SDS011;73331;48.168;20.776;2024-01-11T06:18:51;33.70;;;15.55;;
83404;SDS011;73331;48.168;20.776;2024-01-11T06:20:22;40.25;;;16.10;;
83404;SDS011;73331;48.168;20.776;2024-01-11T06:21:52;50.75;;;18.48;;
83404;SDS011;73331;48.168;20.776;2024-01-11T06:23:24;57.50;;;20.55;;
83404;SDS011;73331;48.168;20.776;2024-01-11T06:24:55;31.85;;;14.02;;
83404;SDS011;73331;48.168;20.776;2024-01-11T06:26:25;35.55;;;14.90;;
83404;SDS011;73331;48.168;20.776;2024-01-11T06:27:56;30.52;;;11.48;;
83404;SDS011;73331;48.168;20.776;2024-01-11T06:29:26;28.92;;;12.38;;
83404;SDS011;73331;48.168;20.776;2024-01-11T06:30:57;28.52;;;12.88;;
83404;SDS011;73331;48.168;20.776;2024-01-11T06:32:27;30.25;;;13.30;;
83404;SDS011;73331;48.168;20.776;2024-01-11T06:33:58;32.35;;;13.60;;
83404;SDS011;73331;48.168;20.776;2024-01-11T06:35:29;37.17;;;15.13;;
83404;SDS011;73331;48.168;20.776;2024-01-11T06:36:59;38.50;;;16.25;;
83404;SDS011;73331;48.168;20.776;2024-01-11T06:38:30;46.83;;;17.55;;
83404;SDS011;73331;48.168;20.776;2024-01-11T06:40:00;38.83;;;17.00;;
83404;SDS011;73331;48.168;20.776;2024-01-11T06:41:31;32.45;;;15.45;;
83404;SDS011;73331;48.168;20.776;2024-01-11T06:43:01;29.17;;;13.93;;
83404;SDS011;73331;48.168;20.776;2024-01-11T06:44:32;42.10;;;16.60;;
83404;SDS011;73331;48.168;20.776;2024-01-11T06:46:03;45.08;;;18.75;;
83404;SDS011;73331;48.168;20.776;2024-01-11T06:47:35;46.00;;;17.70;;
83404;SDS011;73331;48.168;20.776;2024-01-11T06:49:05;44.92;;;17.40;;
83404;SDS011;73331;48.168;20.776;2024-01-11T06:50:37;54.40;;;20.48;;
83404;SDS011;73331;48.168;20.776;2024-01-11T06:52:07;44.80;;;19.65;;
83404;SDS011;73331;48.168;20.776;2024-01-11T06:53:38;47.60;;;21.17;;
83404;SDS011;73331;48.168;20.776;2024-01-11T06:55:08;69.43;;;28.00;;
83404;SDS011;73331;48.168;20.776;2024-01-11T06:56:40;88.65;;;34.00;;
83404;SDS011;73331;48.168;20.776;2024-01-11T06:58:11;63.22;;;26.67;;
83404;SDS011;73331;48.168;20.776;2024-01-11T06:59:42;68.05;;;26.67;;
83404;SDS011;73331;48.168;20.776;2024-01-11T07:01:13;61.97;;;25.60;;
83404;SDS011;73331;48.168;20.776;2024-01-11T07:02:44;55.22;;;24.40;;
83404;SDS011;73331;48.168;20.776;2024-01-11T07:04:15;67.45;;;28.90;;
83404;SDS011;73331;48.168;20.776;2024-01-11T07:05:45;57.58;;;27.20;;
83404;SDS011;73331;48.168;20.776;2024-01-11T07:07:16;55.72;;;22.85;;
83404;SDS011;73331;48.168;20.776;2024-01-11T07:08:46;35.92;;;16.38;;
83404;SDS011;73331;48.168;20.776;2024-01-11T07:10:17;43.75;;;21.05;;
83404;SDS011;73331;48.168;20.776;2024-01-11T07:11:47;40.47;;;18.73;;
83404;SDS011;73331;48.168;20.776;2024-01-11T07:13:18;42.75;;;19.55;;
83404;SDS011;73331;48.168;20.776;2024-01-11T07:14:49;45.60;;;18.92;;
83404;SDS011;73331;48.168;20.776;2024-01-11T07:16:20;39.20;;;15.48;;
83404;SDS011;73331;48.168;20.776;2024-01-11T07:17:51;23.00;;;8.88;;
83404;SDS011;73331;48.168;20.776;2024-01-11T07:19:23;13.13;;;7.82;;
83404;SDS011;73331;48.168;20.776;2024-01-11T07:20:55;41.85;;;15.50;;
83404;SDS011;73331;48.168;20.776;2024-01-11T07:22:27;31.20;;;15.10;;
83404;SDS011;73331;48.168;20.776;2024-01-11T07:24:00;38.17;;;17.70;;
83404;SDS011;73331;48.168;20.776;2024-01-11T07:25:30;50.72;;;22.48;;
83404;SDS011;73331;48.168;20.776;2024-01-11T07:27:02;34.20;;;15.13;;
83404;SDS011;73331;48.168;20.776;2024-01-11T07:28:34;53.88;;;20.95;;
83404;SDS011;73331;48.168;20.776;2024-01-11T07:30:07;19.00;;;8.95;;
83404;SDS011;73331;48.168;20.776;2024-01-11T07:31:38;19.23;;;8.18;;
83404;SDS011;73331;48.168;20.776;2024-01-11T07:33:10;16.80;;;10.52;;
83404;SDS011;73331;48.168;20.776;2024-01-11T07:34:41;28.92;;;15.27;;
83404;SDS011;73331;48.168;20.776;2024-01-11T07:36:11;52.40;;;23.50;;
83404;SDS011;73331;48.168;20.776;2024-01-11T07:37:42;56.70;;;25.05;;
83404;SDS011;73331;48.168;20.776;2024-01-11T07:39:13;48.35;;;19.52;;
83404;SDS011;73331;48.168;20.776;2024-01-11T07:40:43;44.97;;;17.75;;
83404;SDS011;73331;48.168;20.776;2024-01-11T07:42:14;43.38;;;18.45;;
83404;SDS011;73331;48.168;20.776;2024-01-11T07:43:44;37.67;;;16.25;;
83404;SDS011;73331;48.168;20.776;2024-01-11T07:45:15;59.80;;;22.10;;
83404;SDS011;73331;48.168;20.776;2024-01-11T07:46:47;56.22;;;22.05;;
83404;SDS011;73331;48.168;20.776;2024-01-11T07:48:17;39.50;;;20.05;;
83404;SDS011;73331;48.168;20.776;2024-01-11T07:49:48;48.15;;;20.20;;
83404;SDS011;73331;48.168;20.776;2024-01-11T07:51:18;41.15;;;19.67;;
83404;SDS011;73331;48.168;20.776;2024-01-11T07:52:49;57.08;;;19.88;;
83404;SDS011;73331;48.168;20.776;2024-01-11T07:54:21;41.15;;;20.30;;
83404;SDS011;73331;48.168;20.776;2024-01-11T07:55:51;53.75;;;25.83;;
83404;SDS011;73331;48.168;20.776;2024-01-11T07:57:22;48.17;;;21.38;;
83404;SDS011;73331;48.168;20.776;2024-01-11T07:58:53;51.15;;;22.38;;
83404;SDS011;73331;48.168;20.776;2024-01-11T08:00:24;48.83;;;23.35;;
83404;SDS011;73331;48.168;20.776;2024-01-11T08:01:55;42.35;;;19.88;;
83404;SDS011;73331;48.168;20.776;2024-01-11T08:03:25;46.30;;;21.38;;
83404;SDS011;73331;48.168;20.776;2024-01-11T08:04:57;59.90;;;24.20;;
83404;SDS011;73331;48.168;20.776;2024-01-11T08:06:29;53.83;;;23.92;;
83404;SDS011;73331;48.168;20.776;2024-01-11T08:08:00;67.43;;;24.13;;
83404;SDS011;73331;48.168;20.776;2024-01-11T08:09:33;61.25;;;31.50;;
83404;SDS011;73331;48.168;20.776;2024-01-11T08:11:03;76.80;;;39.92;;
83404;SDS011;73331;48.168;20.776;2024-01-11T08:12:34;177.70;;;93.38;;
83404;SDS011;73331;48.168;20.776;2024-01-11T08:14:06;61.63;;;30.60;;
83404;SDS011;73331;48.168;20.776;2024-01-11T08:15:36;52.10;;;23.23;;
83404;SDS011;73331;48.168;20.776;2024-01-11T08:17:08;49.85;;;24.60;;
83404;SDS011;73331;48.168;20.776;2024-01-11T08:18:38;45.38;;;21.42;;
83404;SDS011;73331;48.168;20.776;2024-01-11T08:20:09;67.43;;;31.77;;
83404;SDS011;73331;48.168;20.776;2024-01-11T08:21:42;54.47;;;25.85;;
83404;SDS011;73331;48.168;20.776;2024-01-11T08:23:12;50.33;;;21.92;;
83404;SDS011;73331;48.168;20.776;2024-01-11T08:24:44;43.80;;;18.63;;
83404;SDS011;73331;48.168;20.776;2024-01-11T08:26:15;63.22;;;30.17;;
83404;SDS011;73331;48.168;20.776;2024-01-11T08:27:49;57.08;;;25.25;;
83404;SDS011;73331;48.168;20.776;2024-01-11T08:29:19;35.17;;;17.40;;
83404;SDS011;73331;48.168;20.776;2024-01-11T08:30:50;15.65;;;7.45;;
83404;SDS011;73331;48.168;20.776;2024-01-11T08:32:20;33.65;;;16.83;;
83404;SDS011;73331;48.168;20.776;2024-01-11T08:33:51;21.63;;;12.32;;
83404;SDS011;73331;48.168;20.776;2024-01-11T08:35:21;28.83;;;12.75;;
83404;SDS011;73331;48.168;20.776;2024-01-11T08:36:52;44.60;;;19.98;;
83404;SDS011;73331;48.168;20.776;2024-01-11T08:38:23;38.45;;;18.42;;
83404;SDS011;73331;48.168;20.776;2024-01-11T08:39:54;51.95;;;22.40;;
83404;SDS011;73331;48.168;20.776;2024-01-11T08:41:25;30.33;;;15.13;;
83404;SDS011;73331;48.168;20.776;2024-01-11T08:42:57;29.33;;;14.80;;
83404;SDS011;73331;48.168;20.776;2024-01-11T08:44:28;18.23;;;9.07;;